createdAt,value
2018-05-07T00:00:50.839Z,1.83
2018-05-07T00:03:18.399Z,2.60
2018-05-07T00:05:46.004Z,2.30
2018-05-07T00:08:13.539Z,2.03
2018-05-07T00:10:41.080Z,2.10
2018-05-07T00:13:08.636Z,2.10
2018-05-07T00:15:36.163Z,1.80
2018-05-07T00:18:03.738Z,1.93
2018-05-07T00:20:31.273Z,1.73
2018-05-07T00:22:58.859Z,1.80
2018-05-07T00:25:26.393Z,1.97
2018-05-07T00:27:53.957Z,1.80
2018-05-07T00:30:21.496Z,2.33
2018-05-07T00:32:49.817Z,2.00
2018-05-07T00:35:17.354Z,1.90
2018-05-07T00:37:44.910Z,2.10
2018-05-07T00:40:12.448Z,2.10
2018-05-07T00:42:40.005Z,1.80
2018-05-07T00:45:07.533Z,2.07
2018-05-07T00:47:35.083Z,2.00
2018-05-07T00:50:02.618Z,2.00
2018-05-07T00:52:30.173Z,1.80
2018-05-07T00:55:09.793Z,2.13
2018-05-07T00:57:38.118Z,2.00
2018-05-07T01:00:05.643Z,2.20
2018-05-07T01:02:33.966Z,1.80
2018-05-07T01:05:01.499Z,2.00
2018-05-07T01:07:29.053Z,1.63
2018-05-07T01:09:56.642Z,2.13
2018-05-07T01:12:24.202Z,2.10
2018-05-07T01:14:51.739Z,1.60
2018-05-07T01:17:19.294Z,1.77
2018-05-07T01:19:46.828Z,1.60
2018-05-07T01:22:15.146Z,1.80
2018-05-07T01:24:42.675Z,2.20
2018-05-07T01:27:10.990Z,1.50
2018-05-07T01:29:38.525Z,2.17
2018-05-07T01:32:06.082Z,2.03
2018-05-07T01:34:34.379Z,2.30
2018-05-07T01:37:01.936Z,1.70
2018-05-07T01:39:29.469Z,1.90
2018-05-07T01:41:57.888Z,1.97
2018-05-07T01:44:25.426Z,1.90
2018-05-07T01:46:52.984Z,1.97
2018-05-07T01:49:20.518Z,2.00
2018-05-07T01:51:48.076Z,2.17
2018-05-07T01:54:15.616Z,2.10
2018-05-07T01:56:43.150Z,2.00
2018-05-07T01:59:10.707Z,2.13
2018-05-07T02:01:38.263Z,1.87
2018-05-07T02:04:05.819Z,1.73
2018-05-07T02:06:33.346Z,2.20
2018-05-07T02:09:01.671Z,2.23
2018-05-07T02:11:29.205Z,1.90
2018-05-07T02:13:56.757Z,2.23
2018-05-07T02:16:24.295Z,2.33
2018-05-07T02:18:52.610Z,2.20
2018-05-07T02:21:20.148Z,1.87
2018-05-07T02:23:48.461Z,1.90
2018-05-07T02:26:15.986Z,1.80
2018-05-07T02:28:44.302Z,2.20
2018-05-07T02:31:11.846Z,2.10
2018-05-07T02:33:39.403Z,1.80
2018-05-07T02:36:07.707Z,2.47
2018-05-07T02:38:35.259Z,2.37
2018-05-07T02:41:02.791Z,2.13
2018-05-07T02:43:30.348Z,1.80
2018-05-07T02:45:57.879Z,1.80
2018-05-07T02:48:25.455Z,2.00
2018-05-07T02:50:53.757Z,1.90
2018-05-07T02:53:21.318Z,2.27
2018-05-07T02:55:48.852Z,2.07
2018-05-07T02:58:17.179Z,1.97
2018-05-07T03:00:44.832Z,2.30
2018-05-07T03:03:12.390Z,2.67
2018-05-07T03:05:39.914Z,2.17
2018-05-07T03:08:08.237Z,2.10
2018-05-07T03:10:35.777Z,2.40
2018-05-07T03:13:03.333Z,2.30
2018-05-07T03:15:30.866Z,2.10
2018-05-07T03:17:59.188Z,1.80
2018-05-07T03:20:26.717Z,2.73
2018-05-07T03:22:54.269Z,2.33
2018-05-07T03:25:22.572Z,2.00
2018-05-07T03:27:50.129Z,2.00
2018-05-07T03:30:17.657Z,2.60
2018-05-07T03:32:45.230Z,2.70
2018-05-07T03:35:13.531Z,2.57
2018-05-07T03:37:41.199Z,2.40
2018-05-07T03:40:09.497Z,2.20
2018-05-07T03:42:37.047Z,2.40
2018-05-07T03:45:04.596Z,2.37
2018-05-07T03:47:32.153Z,2.40
2018-05-07T03:49:59.695Z,2.30
2018-05-07T03:52:27.255Z,2.80
2018-05-07T03:54:54.786Z,2.40
2018-05-07T03:57:22.320Z,2.30
2018-05-07T03:59:49.871Z,2.13
2018-05-07T04:02:17.402Z,2.63
2018-05-07T04:04:44.973Z,2.30
2018-05-07T04:07:12.504Z,2.20
2018-05-07T04:09:40.829Z,2.53
2018-05-07T04:12:08.362Z,2.60
2018-05-07T04:14:35.921Z,2.43
2018-05-07T04:17:15.210Z,2.63
2018-05-07T04:19:54.470Z,2.40
2018-05-07T04:22:34.610Z,2.80
2018-05-07T04:25:02.938Z,3.00
2018-05-07T04:27:30.475Z,2.97
2018-05-07T04:29:58.053Z,3.63
2018-05-07T04:32:25.593Z,3.27
2018-05-07T04:34:53.146Z,2.70
2018-05-07T04:37:21.455Z,3.00
2018-05-07T04:39:49.013Z,4.10
2018-05-07T04:42:16.546Z,3.60
2018-05-07T04:44:44.102Z,3.53
2018-05-07T04:47:12.411Z,3.70
2018-05-07T04:49:39.971Z,3.73
2018-05-07T04:52:07.514Z,4.17
2018-05-07T04:54:35.089Z,3.10
2018-05-07T04:57:02.699Z,2.47
2018-05-07T04:59:30.202Z,3.20
2018-05-07T05:01:57.738Z,3.00
2018-05-07T05:04:26.062Z,3.00
2018-05-07T05:06:53.593Z,3.27
2018-05-07T05:09:21.917Z,2.90
2018-05-07T05:11:50.228Z,2.73
2018-05-07T05:14:18.593Z,3.03
2018-05-07T05:16:46.898Z,3.17
2018-05-07T05:19:14.494Z,3.20
2018-05-07T05:21:42.037Z,3.13
2018-05-07T05:24:09.618Z,3.27
2018-05-07T05:26:37.148Z,2.87
2018-05-07T05:29:04.703Z,2.53
2018-05-07T05:31:32.244Z,2.87
2018-05-07T05:34:00.561Z,2.93
2018-05-07T05:36:28.115Z,3.17
2018-05-07T05:38:55.672Z,2.30
2018-05-07T05:41:23.202Z,2.60
2018-05-07T05:43:51.590Z,2.60
2018-05-07T05:46:19.087Z,2.80
2018-05-07T05:48:46.642Z,2.70
2018-05-07T05:51:14.179Z,2.80
2018-05-07T05:53:41.735Z,2.70
2018-05-07T05:56:10.213Z,2.60
2018-05-07T05:58:37.678Z,2.57
2018-05-07T06:01:05.239Z,2.87
2018-05-07T06:03:32.779Z,2.70
2018-05-07T06:06:01.107Z,2.87
2018-05-07T06:08:28.648Z,2.70
2018-05-07T06:10:56.202Z,3.03
2018-05-07T06:13:23.742Z,2.40
2018-05-07T06:15:52.063Z,3.13
2018-05-07T06:18:19.589Z,2.80
2018-05-07T06:20:47.138Z,3.27
2018-05-07T06:23:15.440Z,2.80
2018-05-07T06:25:42.992Z,2.97
2018-05-07T06:28:10.538Z,3.10
2018-05-07T06:30:38.858Z,2.60
2018-05-07T06:33:06.381Z,3.00
2018-05-07T06:38:07.943Z,2.90
2018-05-07T06:40:36.285Z,2.67
2018-05-07T06:43:03.829Z,3.10
2018-05-07T06:45:31.378Z,2.50
2018-05-07T06:47:59.706Z,2.60
2018-05-07T06:50:28.032Z,3.10
2018-05-07T06:52:55.573Z,2.60
2018-05-07T06:55:23.130Z,2.70
2018-05-07T06:57:50.662Z,2.70
2018-05-07T07:00:18.986Z,2.60
2018-05-07T07:02:46.589Z,2.80
2018-05-07T07:05:14.103Z,3.23
2018-05-07T07:07:41.639Z,2.37
2018-05-07T07:10:09.194Z,2.93
2018-05-07T07:12:37.499Z,3.23
2018-05-07T07:15:05.064Z,2.63
2018-05-07T07:17:32.596Z,3.07
2018-05-07T07:20:00.150Z,3.10
2018-05-07T07:22:28.443Z,2.50
2018-05-07T07:24:55.994Z,2.40
2018-05-07T07:27:23.526Z,2.50
2018-05-07T07:29:51.090Z,2.53
2018-05-07T07:32:18.656Z,2.50
2018-05-07T07:34:46.983Z,2.80
2018-05-07T07:37:14.534Z,2.73
2018-05-07T07:39:42.098Z,2.57
2018-05-07T07:42:09.634Z,2.60
2018-05-07T07:44:37.190Z,2.70
2018-05-07T07:47:04.773Z,2.97
2018-05-07T07:49:32.311Z,2.83
2018-05-07T07:51:59.874Z,2.73
2018-05-07T07:54:27.425Z,2.90
2018-05-07T07:56:55.731Z,2.50
2018-05-07T07:59:23.404Z,2.70
2018-05-07T08:01:50.956Z,2.90
2018-05-07T08:04:18.543Z,2.83
2018-05-07T08:06:46.078Z,2.93
2018-05-07T08:09:13.607Z,2.90
2018-05-07T08:11:41.936Z,3.30
2018-05-07T08:14:09.471Z,3.40
2018-05-07T08:16:37.027Z,2.90
2018-05-07T08:19:04.567Z,4.00
2018-05-07T08:21:32.896Z,2.90
2018-05-07T08:24:00.514Z,3.00
2018-05-07T08:26:28.075Z,2.27
2018-05-07T08:28:55.606Z,2.20
2018-05-07T08:31:23.932Z,2.40
2018-05-07T08:33:51.459Z,2.60
2018-05-07T08:38:46.919Z,2.60
2018-05-07T08:41:14.588Z,3.40
2018-05-07T08:43:42.125Z,3.03
2018-05-07T08:46:09.687Z,2.37
2018-05-07T08:48:37.213Z,2.50
2018-05-07T08:51:05.550Z,2.83
2018-05-07T08:53:33.093Z,2.73
2018-05-07T08:56:00.649Z,2.97
2018-05-07T08:58:28.178Z,2.83
2018-05-07T09:00:56.498Z,2.97
2018-05-07T09:03:24.032Z,2.67
2018-05-07T09:05:51.595Z,2.77
2018-05-07T09:08:19.392Z,2.50
2018-05-07T09:10:47.029Z,2.33
2018-05-07T09:13:14.602Z,2.40
2018-05-07T09:15:42.163Z,2.43
2018-05-07T09:18:09.695Z,2.53
2018-05-07T09:20:38.015Z,2.77
2018-05-07T09:23:05.551Z,3.20
2018-05-07T09:25:33.106Z,2.50
2018-05-07T09:28:00.633Z,2.87
2018-05-07T09:30:28.955Z,2.37
2018-05-07T09:32:56.511Z,2.43
2018-05-07T09:35:24.067Z,2.40
2018-05-07T09:37:51.601Z,2.47
2018-05-07T09:40:19.922Z,2.53
2018-05-07T09:42:47.458Z,2.30
2018-05-07T09:45:15.033Z,2.23
2018-05-07T09:47:42.570Z,2.80
2018-05-07T09:50:10.128Z,3.50
2018-05-07T09:52:38.426Z,2.20
2018-05-07T09:55:05.983Z,2.57
2018-05-07T09:57:33.513Z,2.30
2018-05-07T10:00:01.981Z,1.90
2018-05-07T10:02:29.549Z,2.63
2018-05-07T10:04:57.050Z,2.50
2018-05-07T10:07:24.603Z,2.00
2018-05-07T10:09:52.137Z,2.53
2018-05-07T10:12:20.463Z,2.10
2018-05-07T10:14:48.010Z,1.90
2018-05-07T10:17:15.572Z,1.97
2018-05-07T10:19:43.107Z,2.30
2018-05-07T10:22:10.667Z,2.20
2018-05-07T10:24:38.209Z,2.40
2018-05-07T10:27:06.531Z,1.70
2018-05-07T10:29:34.065Z,2.10
2018-05-07T10:32:01.631Z,2.30
2018-05-07T10:34:29.170Z,2.43
2018-05-07T10:36:57.490Z,2.30
2018-05-07T10:39:25.032Z,2.50
2018-05-07T10:41:52.586Z,2.40
2018-05-07T10:44:20.114Z,2.73
2018-05-07T10:46:47.671Z,2.70
2018-05-07T10:49:15.293Z,2.40
2018-05-07T10:51:42.863Z,1.90
2018-05-07T10:54:10.399Z,2.67
2018-05-07T10:56:37.959Z,2.30
2018-05-07T10:59:05.496Z,2.33
2018-05-07T11:01:33.894Z,2.30
2018-05-07T11:04:02.146Z,2.70
2018-05-07T11:06:30.468Z,2.17
2018-05-07T11:08:58.007Z,2.23
2018-05-07T11:11:25.563Z,2.20
2018-05-07T11:13:53.089Z,2.07
2018-05-07T11:16:20.650Z,2.30
2018-05-07T11:18:48.179Z,1.90
2018-05-07T11:21:15.820Z,2.30
2018-05-07T11:23:43.346Z,2.17
2018-05-07T11:26:11.665Z,2.97
2018-05-07T11:28:39.189Z,2.60
2018-05-07T11:31:07.562Z,2.40
2018-05-07T11:33:35.075Z,2.00
2018-05-07T11:36:02.634Z,2.07
2018-05-07T11:38:30.168Z,2.30
2018-05-07T11:40:57.774Z,2.07
2018-05-07T11:43:25.316Z,1.80
2018-05-07T11:45:52.873Z,1.70
2018-05-07T11:48:20.408Z,2.03
2018-05-07T11:50:47.968Z,2.50
2018-05-07T11:53:15.584Z,1.97
2018-05-07T11:55:43.093Z,2.47
2018-05-07T11:58:10.629Z,1.70
2018-05-07T12:00:38.166Z,1.90
2018-05-07T12:03:05.723Z,1.80
2018-05-07T12:05:33.260Z,2.10
2018-05-07T12:08:00.818Z,2.00
2018-05-07T12:10:28.354Z,1.57
2018-05-07T12:12:55.912Z,2.10
2018-05-07T12:15:23.473Z,1.80
2018-05-07T12:17:51.027Z,1.80
2018-05-07T12:20:18.558Z,1.70
2018-05-07T12:22:46.872Z,1.70
2018-05-07T12:25:14.414Z,2.13
2018-05-07T12:27:41.969Z,1.67
2018-05-07T12:30:09.500Z,2.00
2018-05-07T12:32:37.077Z,1.50
2018-05-07T12:35:05.391Z,2.27
2018-05-07T12:37:32.952Z,2.07
2018-05-07T12:40:00.483Z,2.17
2018-05-07T12:42:28.050Z,1.73
2018-05-07T12:44:55.579Z,2.03
2018-05-07T12:47:23.191Z,1.80
2018-05-07T12:49:50.733Z,1.70
2018-05-07T12:52:18.299Z,1.70
2018-05-07T12:54:45.834Z,2.00
2018-05-07T12:57:14.168Z,1.53
2018-05-07T12:59:41.698Z,2.23
2018-05-07T13:02:09.247Z,1.83
2018-05-07T13:04:36.782Z,1.40
2018-05-07T13:07:05.112Z,1.80
2018-05-07T13:09:32.669Z,1.83
2018-05-07T13:12:00.223Z,2.00
2018-05-07T13:14:27.750Z,2.10
2018-05-07T13:16:56.071Z,1.70
2018-05-07T13:19:23.607Z,1.87
2018-05-07T13:21:51.163Z,1.90
2018-05-07T13:24:18.698Z,2.37
2018-05-07T13:26:47.027Z,2.13
2018-05-07T13:29:14.563Z,1.90
2018-05-07T13:31:42.114Z,2.33
2018-05-07T13:34:10.406Z,2.17
2018-05-07T13:36:38.088Z,2.03
2018-05-07T13:39:05.629Z,2.10
2018-05-07T13:41:33.197Z,2.67
2018-05-07T13:44:00.743Z,1.80
2018-05-07T13:46:28.297Z,1.67
2018-05-07T13:48:56.597Z,1.90
2018-05-07T13:51:24.160Z,2.47
2018-05-07T13:53:51.690Z,2.77
2018-05-07T13:56:19.986Z,1.80
2018-05-07T13:58:47.559Z,1.70
2018-05-07T14:01:15.103Z,1.90
2018-05-07T14:03:42.681Z,2.00
2018-05-07T14:06:10.211Z,2.03
2018-05-07T14:08:38.630Z,1.80
2018-05-07T14:11:06.163Z,2.43
2018-05-07T14:13:33.719Z,1.70
2018-05-07T14:16:01.260Z,2.03
2018-05-07T14:18:29.582Z,1.90
2018-05-07T14:20:57.113Z,1.77
2018-05-07T14:23:24.804Z,2.00
2018-05-07T14:25:52.488Z,1.70
2018-05-07T14:28:20.062Z,2.17
2018-05-07T14:30:47.600Z,1.70
2018-05-07T14:33:15.160Z,2.07
2018-05-07T14:35:42.694Z,1.70
2018-05-07T14:38:10.250Z,2.57
2018-05-07T14:40:37.796Z,2.40
2018-05-07T14:43:06.119Z,1.90
2018-05-07T14:45:33.654Z,1.80
2018-05-07T14:48:01.212Z,2.03
2018-05-07T14:50:28.750Z,1.63
2018-05-07T14:52:57.068Z,1.97
2018-05-07T14:55:24.618Z,1.50
2018-05-07T14:57:52.175Z,1.60
2018-05-07T15:00:19.740Z,2.20
2018-05-07T15:02:47.296Z,1.87
2018-05-07T15:05:14.830Z,1.83
2018-05-07T15:07:43.153Z,2.13
2018-05-07T15:10:10.691Z,2.50
2018-05-07T15:12:38.251Z,2.00
2018-05-07T15:15:05.797Z,2.37
2018-05-07T15:17:33.351Z,1.77
2018-05-07T15:20:01.652Z,2.00
2018-05-07T15:22:29.206Z,1.80
2018-05-07T15:24:56.738Z,2.37
2018-05-07T15:27:25.066Z,2.23
2018-05-07T15:29:52.601Z,2.50
2018-05-07T15:32:20.162Z,1.97
2018-05-07T15:34:47.704Z,2.33
2018-05-07T15:37:16.011Z,1.67
2018-05-07T15:39:44.342Z,2.43
2018-05-07T15:42:11.878Z,2.50
2018-05-07T15:44:39.435Z,1.90
2018-05-07T15:47:06.985Z,1.80
2018-05-07T15:49:34.544Z,1.70
2018-05-07T15:52:02.078Z,1.77
2018-05-07T15:54:29.633Z,2.20
2018-05-07T15:56:57.333Z,1.77
2018-05-07T15:59:24.898Z,2.00
2018-05-07T16:01:52.436Z,2.13
2018-05-07T16:04:20.150Z,2.23
2018-05-07T16:06:47.681Z,1.87
2018-05-07T16:09:15.299Z,1.93
2018-05-07T16:11:43.583Z,2.20
2018-05-07T16:14:11.133Z,1.70
2018-05-07T16:16:38.669Z,1.80
2018-05-07T16:19:06.321Z,1.80
2018-05-07T16:21:33.820Z,2.10
2018-05-07T16:24:01.397Z,2.77
2018-05-07T16:26:29.031Z,1.97
2018-05-07T16:28:56.525Z,1.77
2018-05-07T16:31:24.171Z,1.80
2018-05-07T16:33:51.706Z,1.90
2018-05-07T16:36:20.127Z,2.53
2018-05-07T16:38:47.691Z,1.97
2018-05-07T16:41:15.230Z,2.40
2018-05-07T16:43:42.793Z,2.73
2018-05-07T16:46:10.347Z,2.10
2018-05-07T16:48:38.008Z,2.27
2018-05-07T16:51:06.286Z,2.10
2018-05-07T16:53:33.819Z,2.73
2018-05-07T16:56:02.118Z,2.13
2018-05-07T16:58:29.673Z,2.17
2018-05-07T17:00:57.985Z,2.20
2018-05-07T17:03:25.641Z,2.10
2018-05-07T17:05:53.305Z,1.90
2018-05-07T17:08:20.896Z,2.20
2018-05-07T17:10:49.242Z,2.30
2018-05-07T17:13:16.805Z,2.37
2018-05-07T17:15:44.339Z,1.87
2018-05-07T17:18:11.899Z,2.57
2018-05-07T17:20:39.449Z,1.80
2018-05-07T17:23:07.770Z,2.17
2018-05-07T17:25:35.306Z,2.10
2018-05-07T17:28:02.863Z,1.93
2018-05-07T17:30:30.393Z,2.07
2018-05-07T17:32:57.971Z,1.70
2018-05-07T17:35:26.266Z,2.23
2018-05-07T17:37:53.800Z,2.50
2018-05-07T17:40:22.225Z,1.70
2018-05-07T17:42:49.672Z,2.43
2018-05-07T17:45:28.978Z,2.17
2018-05-07T17:48:09.306Z,1.70
2018-05-07T17:50:36.832Z,2.27
2018-05-07T17:53:04.366Z,1.93
2018-05-07T17:55:31.922Z,2.23
2018-05-07T17:58:00.219Z,2.40
2018-05-07T18:00:27.775Z,2.00
2018-05-07T18:02:55.354Z,2.27
2018-05-07T18:05:22.922Z,2.10
2018-05-07T18:07:50.449Z,1.90
2018-05-07T18:10:18.009Z,2.30
2018-05-07T18:12:45.543Z,2.73
2018-05-07T18:15:13.099Z,2.43
2018-05-07T18:17:40.636Z,2.40
2018-05-07T18:20:08.191Z,2.67
2018-05-07T18:22:35.728Z,2.40
2018-05-07T18:25:03.286Z,2.27
2018-05-07T18:27:30.823Z,2.43
2018-05-07T18:29:59.150Z,2.40
2018-05-07T18:32:26.759Z,2.70
2018-05-07T18:34:54.273Z,2.40
2018-05-07T18:37:21.814Z,2.70
2018-05-07T18:39:49.374Z,1.83
2018-05-07T18:42:16.909Z,3.00
2018-05-07T18:44:44.480Z,2.23
2018-05-07T18:47:12.015Z,2.67
2018-05-07T18:49:40.335Z,2.00
2018-05-07T18:52:07.914Z,1.80
2018-05-07T18:54:35.438Z,2.50
2018-05-07T18:57:02.972Z,2.37
2018-05-07T18:59:31.291Z,2.10
2018-05-07T19:01:58.824Z,2.40
2018-05-07T19:04:26.383Z,2.13
2018-05-07T19:06:53.918Z,2.40
2018-05-07T19:09:21.480Z,2.33
2018-05-07T19:11:49.782Z,1.90
2018-05-07T19:14:18.141Z,2.40
2018-05-07T19:16:45.655Z,2.40
2018-05-07T19:19:13.190Z,2.20
2018-05-07T19:21:40.746Z,2.57
2018-05-07T19:24:08.290Z,2.67
2018-05-07T19:26:36.614Z,2.50
2018-05-07T19:29:04.162Z,2.27
2018-05-07T19:31:31.729Z,2.80
2018-05-07T19:33:59.261Z,2.60
2018-05-07T19:36:26.814Z,2.53
2018-05-07T19:38:54.356Z,2.73
2018-05-07T19:41:22.765Z,2.20
2018-05-07T19:43:50.248Z,2.77
2018-05-07T19:46:17.900Z,2.60
2018-05-07T19:48:45.434Z,3.03
2018-05-07T19:51:13.755Z,2.47
2018-05-07T19:53:41.281Z,2.50
2018-05-07T19:56:08.838Z,3.00
2018-05-07T19:58:36.372Z,2.50
2018-05-07T20:01:04.703Z,3.30
2018-05-07T20:03:32.999Z,2.57
2018-05-07T20:06:00.559Z,2.57
2018-05-07T20:08:28.092Z,3.30
2018-05-07T20:10:55.642Z,2.77
2018-05-07T20:13:23.176Z,2.60
2018-05-07T20:15:51.499Z,2.70
2018-05-07T20:18:19.031Z,2.63
2018-05-07T20:20:46.592Z,2.23
2018-05-07T20:23:14.276Z,2.70
2018-05-07T20:25:41.912Z,3.13
2018-05-07T20:28:09.444Z,2.33
2018-05-07T20:30:37.001Z,3.00
2018-05-07T20:33:04.528Z,3.50
2018-05-07T20:35:32.098Z,2.90
2018-05-07T20:37:59.634Z,2.80
2018-05-07T20:40:27.256Z,2.73
2018-05-07T20:42:54.747Z,3.20
2018-05-07T20:45:22.311Z,3.30
2018-05-07T20:47:49.846Z,2.50
2018-05-07T20:50:18.258Z,3.33
2018-05-07T20:52:45.794Z,2.87
2018-05-07T20:55:13.354Z,2.87
2018-05-07T20:57:40.916Z,2.53
2018-05-07T21:00:08.468Z,2.43
2018-05-07T21:02:36.768Z,3.23
2018-05-07T21:05:04.319Z,2.90
2018-05-07T21:07:31.849Z,2.60
2018-05-07T21:10:00.173Z,3.17
2018-05-07T21:12:27.710Z,2.77
2018-05-07T21:14:55.276Z,3.13
2018-05-07T21:17:22.819Z,3.00
2018-05-07T21:19:51.115Z,2.90
2018-05-07T21:22:18.689Z,3.10
2018-05-07T21:24:46.219Z,2.70
2018-05-07T21:27:14.542Z,3.10
2018-05-07T21:29:42.180Z,3.40
2018-05-07T21:32:09.733Z,2.87
2018-05-07T21:34:37.259Z,3.60
2018-05-07T21:37:05.585Z,3.90
2018-05-07T21:39:33.118Z,3.50
2018-05-07T21:42:01.438Z,3.23
2018-05-07T21:44:28.984Z,2.47
2018-05-07T21:46:56.559Z,3.60
2018-05-07T21:49:24.085Z,3.37
2018-05-07T21:51:51.666Z,2.93
2018-05-07T21:54:19.200Z,2.73
2018-05-07T21:56:46.755Z,3.20
2018-05-07T21:59:15.059Z,2.90
2018-05-07T22:01:42.617Z,3.53
2018-05-07T22:04:10.152Z,3.83
2018-05-07T22:06:38.478Z,3.10
2018-05-07T22:09:06.006Z,3.60
2018-05-07T22:11:33.568Z,3.80
2018-05-07T22:14:01.101Z,5.23
2018-05-07T22:16:29.425Z,4.50
2018-05-07T22:18:56.953Z,3.80
2018-05-07T22:21:24.506Z,3.37
2018-05-07T22:23:52.798Z,3.40
2018-05-07T22:26:20.353Z,3.67
2018-05-07T22:28:47.881Z,4.17
2018-05-07T22:31:15.439Z,4.17
2018-05-07T22:33:42.970Z,2.93
2018-05-07T22:36:10.523Z,3.70
2018-05-07T22:38:38.055Z,3.43
2018-05-07T22:41:05.614Z,3.40
2018-05-07T22:43:33.154Z,3.37
2018-05-07T22:46:01.483Z,2.97
2018-05-07T22:48:29.017Z,3.73
2018-05-07T22:50:56.591Z,3.00
2018-05-07T22:53:24.122Z,3.00
2018-05-07T22:55:52.449Z,3.20
2018-05-07T22:58:19.980Z,3.23
2018-05-07T23:00:47.551Z,3.90
2018-05-07T23:03:15.089Z,3.87
2018-05-07T23:05:42.622Z,3.80
2018-05-07T23:08:10.951Z,3.23
2018-05-07T23:10:38.507Z,3.60
2018-05-07T23:13:06.071Z,3.93
2018-05-07T23:15:33.612Z,3.90
2018-05-07T23:18:01.171Z,3.60
2018-05-07T23:20:28.711Z,4.23
2018-05-07T23:22:57.034Z,3.40
2018-05-07T23:25:24.567Z,3.20
2018-05-07T23:27:52.119Z,3.03
2018-05-07T23:30:20.423Z,3.60
2018-05-07T23:32:47.983Z,2.80
2018-05-07T23:35:15.524Z,3.40
2018-05-07T23:37:43.096Z,4.20
2018-05-07T23:40:10.632Z,3.60
2018-05-07T23:42:38.959Z,3.10
2018-05-07T23:45:06.490Z,3.20
2018-05-07T23:47:34.044Z,2.43
2018-05-07T23:50:01.576Z,2.57
2018-05-07T23:52:29.890Z,2.57
2018-05-07T23:54:57.427Z,3.10
2018-05-07T23:57:25.750Z,3.03
2018-05-07T23:59:53.282Z,2.40
